createdAt,value
2019-05-28T00:00:10.020Z,3.23
2019-05-28T00:02:38.920Z,3.03
2019-05-28T00:05:08.160Z,3.27
2019-05-28T00:07:37.184Z,3.53
2019-05-28T00:10:07.098Z,3.40
2019-05-28T00:12:36.320Z,3.70
2019-05-28T00:15:06.569Z,3.50
2019-05-28T00:17:35.460Z,3.60
2019-05-28T00:20:09.120Z,3.30
2019-05-28T00:22:38.022Z,3.43
2019-05-28T00:25:09.163Z,3.60
2019-05-28T00:27:38.061Z,3.70
2019-05-28T00:30:19.215Z,3.50
2019-05-28T00:32:38.440Z,3.50
2019-05-28T00:35:07.803Z,3.90
2019-05-28T00:37:36.701Z,3.90
2019-05-28T00:40:07.221Z,4.23
2019-05-28T00:42:36.122Z,4.10
2019-05-28T00:45:07.862Z,3.67
2019-05-28T00:47:36.763Z,4.07
2019-05-28T00:50:10.124Z,3.90
2019-05-28T00:52:39.125Z,4.00
2019-05-28T00:55:09.064Z,3.93
2019-05-28T00:57:43.560Z,4.50
2019-05-28T01:00:13.008Z,3.77
2019-05-28T01:02:41.982Z,3.53
2019-05-28T01:05:11.404Z,3.80
2019-05-28T01:07:40.300Z,3.97
2019-05-28T01:10:10.064Z,3.90
2019-05-28T01:12:38.961Z,4.03
2019-05-28T01:15:08.786Z,4.40
2019-05-28T01:17:37.980Z,4.90
2019-05-28T01:20:09.026Z,4.40
2019-05-28T01:22:37.960Z,4.53
2019-05-28T01:25:07.341Z,4.60
2019-05-28T01:27:36.248Z,4.53
2019-05-28T01:30:06.974Z,4.90
2019-05-28T01:32:35.943Z,4.53
2019-05-28T01:35:06.680Z,4.03
2019-05-28T01:37:35.580Z,4.13
2019-05-28T01:40:06.128Z,4.13
2019-05-28T01:42:35.021Z,4.37
2019-05-28T01:45:04.840Z,4.40
2019-05-28T01:47:33.783Z,4.43
2019-05-28T01:50:02.680Z,4.43
2019-05-28T01:52:31.624Z,3.70
2019-05-28T01:55:00.881Z,4.47
2019-05-28T01:57:29.821Z,4.10
2019-05-28T01:59:58.722Z,4.40
2019-05-28T02:02:27.661Z,4.10
2019-05-28T02:04:56.614Z,4.07
2019-05-28T02:07:25.641Z,4.27
2019-05-28T02:09:54.542Z,4.20
2019-05-28T02:12:23.481Z,4.30
2019-05-28T02:14:52.400Z,4.07
2019-05-28T02:17:21.363Z,4.43
2019-05-28T02:19:50.268Z,3.97
2019-05-28T02:22:19.203Z,4.40
2019-05-28T02:24:48.045Z,4.43
2019-05-28T02:27:16.989Z,4.67
2019-05-28T02:29:45.880Z,4.33
2019-05-28T02:32:14.820Z,4.63
2019-05-28T02:34:43.720Z,4.70
2019-05-28T02:37:12.660Z,4.63
2019-05-28T02:39:41.583Z,4.50
2019-05-28T02:42:10.540Z,4.20
2019-05-28T02:44:39.420Z,4.50
2019-05-28T02:47:08.381Z,4.50
2019-05-28T02:49:37.280Z,4.30
2019-05-28T02:52:06.240Z,4.93
2019-05-28T02:54:35.161Z,5.03
2019-05-28T02:57:04.801Z,5.03
2019-05-28T02:59:34.900Z,5.07
2019-05-28T03:02:04.651Z,4.73
2019-05-28T03:04:35.896Z,5.07
2019-05-28T03:07:05.040Z,5.20
2019-05-28T03:09:35.420Z,4.90
2019-05-28T03:12:04.360Z,5.30
2019-05-28T03:14:33.261Z,5.40
2019-05-28T03:17:04.680Z,4.87
2019-05-28T03:19:35.785Z,5.10
2019-05-28T03:22:06.921Z,5.40
2019-05-28T03:24:37.420Z,4.83
2019-05-28T03:27:06.380Z,5.47
2019-05-28T03:29:35.262Z,5.53
2019-05-28T03:32:09.121Z,4.87
2019-05-28T03:34:34.841Z,5.73
2019-05-28T03:37:04.706Z,5.60
2019-05-28T03:39:34.501Z,5.10
2019-05-28T03:42:03.442Z,5.10
2019-05-28T03:44:32.290Z,4.83
2019-05-28T03:47:01.221Z,5.40
2019-05-28T03:49:30.122Z,5.47
2019-05-28T03:51:59.060Z,4.80
2019-05-28T03:54:27.965Z,5.50
2019-05-28T03:56:56.900Z,5.90
2019-05-28T03:59:25.822Z,6.00
2019-05-28T04:01:54.680Z,6.47
2019-05-28T04:04:23.582Z,5.60
2019-05-28T04:06:52.520Z,6.23
2019-05-28T04:09:21.420Z,6.00
2019-05-28T04:11:50.383Z,5.43
2019-05-28T04:14:19.276Z,5.93
2019-05-28T04:16:48.180Z,7.13
2019-05-28T04:19:17.120Z,6.63
2019-05-28T04:21:46.020Z,6.97
2019-05-28T04:24:14.982Z,6.77
2019-05-28T04:26:43.881Z,5.43
2019-05-28T04:29:12.761Z,5.73
2019-05-28T04:31:41.680Z,5.23
2019-05-28T04:34:10.621Z,5.80
2019-05-28T04:36:39.560Z,5.80
2019-05-28T04:39:09.100Z,5.97
2019-05-28T04:41:38.002Z,5.70
2019-05-28T04:44:06.941Z,6.17
2019-05-28T04:46:35.889Z,5.53
2019-05-28T04:49:04.903Z,6.10
2019-05-28T04:51:33.821Z,5.53
2019-05-28T04:54:02.782Z,6.00
2019-05-28T04:56:31.680Z,6.63
2019-05-28T04:59:03.710Z,6.17
2019-05-28T05:01:31.160Z,6.10
2019-05-28T05:04:00.130Z,6.70
2019-05-28T05:06:29.041Z,6.13
2019-05-28T05:08:57.981Z,6.80
2019-05-28T05:11:26.918Z,6.60
2019-05-28T05:13:55.861Z,6.10
2019-05-28T05:16:24.780Z,6.13
2019-05-28T05:18:53.721Z,7.47
2019-05-28T05:21:22.622Z,6.63
2019-05-28T05:23:51.561Z,6.83
2019-05-28T05:26:20.470Z,6.73
2019-05-28T05:28:49.400Z,6.67
2019-05-28T05:31:18.302Z,6.47
2019-05-28T05:33:47.260Z,6.40
2019-05-28T05:36:16.160Z,7.10
2019-05-28T05:38:45.122Z,6.93
2019-05-28T05:41:14.021Z,6.50
2019-05-28T05:43:42.961Z,6.30
2019-05-28T05:46:11.881Z,6.43
2019-05-28T05:48:40.821Z,6.37
2019-05-28T05:51:09.742Z,6.30
2019-05-28T05:53:39.661Z,6.67
2019-05-28T05:56:08.561Z,6.47
2019-05-28T05:58:37.503Z,6.30
2019-05-28T06:01:06.401Z,6.50
2019-05-28T06:03:40.260Z,6.80
2019-05-28T06:06:06.010Z,6.27
2019-05-28T06:08:37.131Z,6.00
2019-05-28T06:11:05.481Z,6.43
2019-05-28T06:13:34.562Z,6.73
2019-05-28T06:16:03.585Z,6.40
2019-05-28T06:18:32.520Z,6.70
2019-05-28T06:21:12.560Z,6.57
2019-05-28T06:23:31.967Z,6.03
2019-05-28T06:26:00.861Z,5.90
2019-05-28T06:28:29.801Z,6.20
2019-05-28T06:30:58.721Z,5.97
2019-05-28T06:33:27.700Z,6.80
2019-05-28T06:35:56.581Z,6.33
2019-05-28T06:38:25.763Z,6.47
2019-05-28T06:40:54.661Z,5.93
2019-05-28T06:43:23.600Z,6.63
2019-05-28T06:45:52.501Z,6.40
2019-05-28T06:48:21.403Z,6.20
2019-05-28T06:50:50.373Z,5.90
2019-05-28T06:53:19.260Z,6.00
2019-05-28T06:55:48.204Z,7.00
2019-05-28T06:58:17.121Z,6.30
2019-05-28T07:00:46.061Z,5.43
2019-05-28T07:03:14.963Z,5.30
2019-05-28T07:05:43.901Z,5.57
2019-05-28T07:08:12.801Z,5.80
2019-05-28T07:10:56.486Z,4.90
2019-05-28T07:13:12.916Z,5.37
2019-05-28T07:15:41.840Z,5.03
2019-05-28T07:18:10.740Z,5.50
2019-05-28T07:20:39.681Z,5.27
2019-05-28T07:23:08.581Z,5.70
2019-05-28T07:25:37.523Z,5.70
2019-05-28T07:28:11.270Z,5.43
2019-05-28T07:30:37.001Z,5.50
2019-05-28T07:33:05.967Z,5.47
2019-05-28T07:35:45.379Z,5.10
2019-05-28T07:38:14.730Z,5.43
2019-05-28T07:40:43.701Z,6.03
2019-05-28T07:43:12.580Z,5.20
2019-05-28T07:45:41.520Z,5.27
2019-05-28T07:48:10.423Z,4.80
2019-05-28T07:50:39.381Z,4.33
2019-05-28T07:53:08.281Z,4.60
2019-05-28T07:55:37.182Z,4.57
2019-05-28T07:58:06.101Z,4.80
2019-05-28T08:00:42.281Z,5.47
2019-05-28T08:03:12.160Z,5.90
2019-05-28T08:05:41.122Z,6.33
2019-05-28T08:08:12.824Z,6.47
2019-05-28T08:10:41.761Z,6.30
2019-05-28T08:13:10.660Z,5.37
2019-05-28T08:15:39.600Z,4.70
2019-05-28T08:18:08.520Z,4.90
2019-05-28T08:20:37.489Z,4.50
2019-05-28T08:23:06.380Z,4.50
2019-05-28T08:25:46.964Z,4.43
2019-05-28T08:28:19.171Z,4.30
2019-05-28T08:30:36.687Z,4.80
2019-05-28T08:33:05.585Z,4.53
2019-05-28T08:35:34.521Z,4.63
2019-05-28T08:38:03.424Z,4.83
2019-05-28T08:40:32.461Z,5.60
2019-05-28T08:43:01.383Z,5.37
2019-05-28T08:45:30.325Z,5.37
2019-05-28T08:47:59.263Z,5.13
2019-05-28T08:50:34.434Z,6.07
2019-05-28T08:52:59.060Z,5.30
2019-05-28T08:55:28.160Z,6.23
2019-05-28T08:57:57.081Z,6.17
2019-05-28T09:00:40.220Z,5.83
2019-05-28T09:03:09.463Z,5.97
2019-05-28T09:05:38.421Z,6.40
2019-05-28T09:08:07.321Z,6.70
2019-05-28T09:10:36.301Z,7.83
2019-05-28T09:13:05.501Z,7.90
2019-05-28T09:15:34.840Z,8.17
2019-05-28T09:18:03.935Z,8.47
2019-05-28T09:20:33.237Z,8.80
2019-05-28T09:23:02.244Z,8.87
2019-05-28T09:25:31.201Z,8.93
2019-05-28T09:28:00.122Z,9.00
2019-05-28T09:30:29.861Z,9.17
2019-05-28T09:32:58.769Z,8.80
2019-05-28T09:35:43.503Z,8.07
2019-05-28T09:37:58.181Z,8.43
2019-05-28T09:40:45.772Z,7.80
2019-05-28T09:42:57.762Z,7.13
2019-05-28T09:45:26.700Z,7.50
2019-05-28T09:47:55.600Z,6.07
2019-05-28T09:50:30.497Z,6.50
2019-05-28T09:52:55.585Z,6.10
2019-05-28T09:55:24.593Z,6.13
2019-05-28T09:57:53.575Z,6.03
2019-05-28T10:00:24.601Z,6.00
2019-05-28T10:02:53.515Z,6.00
2019-05-28T10:05:22.961Z,6.10
2019-05-28T10:07:51.880Z,6.20
2019-05-28T10:10:21.180Z,6.50
2019-05-28T10:12:50.141Z,6.83
2019-05-28T10:15:19.531Z,6.43
2019-05-28T10:17:48.476Z,6.80
2019-05-28T10:20:18.280Z,6.70
2019-05-28T10:22:47.229Z,6.63
2019-05-28T10:25:16.341Z,7.03
2019-05-28T10:28:00.294Z,6.40
2019-05-28T10:30:16.340Z,6.50
2019-05-28T10:32:45.281Z,6.80
2019-05-28T10:35:15.025Z,7.17
2019-05-28T10:37:43.981Z,6.40
2019-05-28T10:40:13.541Z,8.00
2019-05-28T10:42:42.482Z,7.97
2019-05-28T10:45:11.929Z,8.20
2019-05-28T10:47:40.861Z,8.70
2019-05-28T10:50:09.961Z,8.20
2019-05-28T10:52:38.921Z,9.53
2019-05-28T10:55:08.446Z,9.70
2019-05-28T10:57:37.581Z,8.37
2019-05-28T11:00:10.200Z,8.27
2019-05-28T11:02:39.140Z,8.87
2019-05-28T11:05:09.061Z,9.20
2019-05-28T11:07:38.100Z,9.57
2019-05-28T11:10:23.022Z,10.23
2019-05-28T11:12:39.164Z,9.80
2019-05-28T11:15:09.988Z,10.60
2019-05-28T11:17:39.003Z,10.03
2019-05-28T11:20:09.540Z,9.40
2019-05-28T11:22:38.501Z,10.30
2019-05-28T11:25:08.621Z,10.10
2019-05-28T11:27:37.563Z,10.50
2019-05-28T11:30:11.028Z,10.53
2019-05-28T11:32:39.983Z,10.50
2019-05-28T11:35:09.566Z,10.47
2019-05-28T11:37:38.500Z,11.20
2019-05-28T11:40:12.221Z,11.57
2019-05-28T11:42:41.182Z,10.97
2019-05-28T11:45:13.893Z,9.93
2019-05-28T11:47:42.704Z,8.77
2019-05-28T11:50:12.201Z,8.70
2019-05-28T11:52:41.120Z,8.40
2019-05-28T11:55:14.781Z,8.33
2019-05-28T11:57:43.662Z,8.97
2019-05-28T12:00:14.085Z,8.93
2019-05-28T12:02:43.051Z,9.47
2019-05-28T12:05:12.842Z,9.03
2019-05-28T12:07:41.781Z,10.10
2019-05-28T12:10:12.303Z,9.97
2019-05-28T12:12:41.328Z,10.07
2019-05-28T12:15:11.961Z,10.60
2019-05-28T12:17:44.358Z,10.07
2019-05-28T12:20:13.863Z,10.10
2019-05-28T12:22:43.301Z,10.60
2019-05-28T12:25:14.002Z,8.90
2019-05-28T12:27:42.970Z,9.97
2019-05-28T12:30:18.126Z,9.07
2019-05-28T12:32:45.540Z,8.70
2019-05-28T12:35:27.538Z,9.00
2019-05-28T12:37:49.738Z,9.47
2019-05-28T12:40:19.221Z,8.97
2019-05-28T12:42:48.161Z,8.40
2019-05-28T12:45:33.845Z,7.90
2019-05-28T12:48:07.278Z,7.73
2019-05-28T12:50:21.982Z,7.87
2019-05-28T12:52:50.934Z,7.63
2019-05-28T12:55:20.320Z,6.27
2019-05-28T12:57:49.277Z,6.73
2019-05-28T13:00:20.581Z,6.37
2019-05-28T13:02:49.545Z,6.10
2019-05-28T13:05:26.983Z,6.60
2019-05-28T13:08:08.120Z,6.70
2019-05-28T13:10:26.461Z,5.60
2019-05-28T13:12:55.463Z,6.40
2019-05-28T13:15:25.344Z,6.57
2019-05-28T13:17:54.262Z,7.30
2019-05-28T13:20:23.202Z,7.13
2019-05-28T13:22:52.161Z,7.37
2019-05-28T13:25:21.060Z,6.77
2019-05-28T13:27:50.023Z,6.37
2019-05-28T13:30:20.141Z,6.90
2019-05-28T13:32:49.151Z,7.10
2019-05-28T13:35:18.907Z,6.90
2019-05-28T13:37:49.781Z,6.83
2019-05-28T13:40:19.483Z,7.30
2019-05-28T13:42:48.441Z,7.30
2019-05-28T13:45:17.662Z,7.87
2019-05-28T13:47:46.641Z,8.23
2019-05-28T13:50:17.120Z,8.07
2019-05-28T13:52:46.122Z,7.70
2019-05-28T13:55:15.561Z,8.53
2019-05-28T13:57:44.509Z,8.67
2019-05-28T14:00:18.312Z,9.07
2019-05-28T14:02:47.282Z,9.70
2019-05-28T14:05:17.222Z,9.73
2019-05-28T14:07:46.180Z,10.20
2019-05-28T14:10:16.761Z,10.10
2019-05-28T14:12:45.702Z,10.83
2019-05-28T14:15:14.925Z,10.97
2019-05-28T14:17:43.938Z,10.17
2019-05-28T14:20:13.836Z,10.40
2019-05-28T14:22:42.842Z,11.10
2019-05-28T14:25:13.932Z,10.80
2019-05-28T14:27:42.824Z,11.33
2019-05-28T14:30:14.889Z,11.47
2019-05-28T14:32:43.760Z,10.93
2019-05-28T14:35:12.909Z,10.40
2019-05-28T14:37:41.821Z,10.80
2019-05-28T14:40:12.360Z,7.87
2019-05-28T14:42:41.261Z,9.13
2019-05-28T14:45:11.942Z,9.10
2019-05-28T14:47:40.841Z,9.97
2019-05-28T14:50:10.501Z,9.30
2019-05-28T14:52:39.469Z,10.10
2019-05-28T14:55:10.433Z,10.50
2019-05-28T14:57:39.472Z,11.30
2019-05-28T15:00:19.121Z,11.13
2019-05-28T15:02:48.100Z,10.97
2019-05-28T15:05:17.282Z,11.17
2019-05-28T15:07:47.040Z,10.43
2019-05-28T15:10:16.710Z,11.30
2019-05-28T15:12:45.765Z,11.10
2019-05-28T15:15:33.954Z,10.80
2019-05-28T15:17:47.672Z,10.93
2019-05-28T15:20:17.321Z,11.33
2019-05-28T15:22:46.220Z,11.87
2019-05-28T15:25:15.600Z,11.30
2019-05-28T15:27:44.502Z,10.73
2019-05-28T15:30:14.761Z,10.77
2019-05-28T15:32:43.650Z,11.40
2019-05-28T15:35:14.621Z,11.77
2019-05-28T15:37:43.560Z,11.13
2019-05-28T15:40:12.901Z,11.47
2019-05-28T15:42:41.911Z,11.17
2019-05-28T15:45:12.370Z,10.40
2019-05-28T15:47:44.772Z,9.90
2019-05-28T15:50:13.362Z,10.10
2019-05-28T15:52:42.240Z,9.23
2019-05-28T15:55:11.290Z,9.97
2019-05-28T15:57:40.183Z,8.90
2019-05-28T16:00:11.526Z,8.60
2019-05-28T16:02:40.400Z,8.43
2019-05-28T16:05:10.134Z,8.43
2019-05-28T16:07:39.012Z,8.23
2019-05-28T16:10:08.601Z,7.30
2019-05-28T16:12:37.462Z,6.80
2019-05-28T16:15:08.581Z,7.47
2019-05-28T16:17:37.534Z,7.07
2019-05-28T16:20:10.281Z,7.20
2019-05-28T16:22:39.281Z,7.07
2019-05-28T16:25:09.140Z,7.57
2019-05-28T16:27:38.036Z,7.53
2019-05-28T16:30:09.273Z,8.17
2019-05-28T16:32:38.285Z,8.30
2019-05-28T16:35:07.842Z,7.97
2019-05-28T16:37:36.741Z,7.80
2019-05-28T16:40:14.775Z,8.40
2019-05-28T16:42:38.242Z,7.67
2019-05-28T16:45:08.363Z,9.20
2019-05-28T16:47:37.271Z,9.23
2019-05-28T16:50:07.088Z,9.47
2019-05-28T16:52:36.082Z,8.87
2019-05-28T16:55:06.221Z,9.57
2019-05-28T16:57:35.266Z,9.40
2019-05-28T17:00:08.241Z,9.63
2019-05-28T17:02:37.141Z,9.60
2019-05-28T17:05:09.581Z,9.87
2019-05-28T17:07:38.502Z,9.70
2019-05-28T17:10:07.941Z,10.07
2019-05-28T17:12:36.947Z,11.47
2019-05-28T17:15:09.145Z,11.27
2019-05-28T17:17:38.060Z,11.00
2019-05-28T17:20:08.566Z,11.20
2019-05-28T17:22:37.480Z,10.63
2019-05-28T17:25:11.100Z,10.80
2019-05-28T17:27:38.560Z,11.07
2019-05-28T17:30:17.988Z,11.20
2019-05-28T17:32:39.921Z,11.17
2019-05-28T17:35:09.182Z,11.03
2019-05-28T17:37:38.081Z,11.67
2019-05-28T17:40:08.141Z,10.37
2019-05-28T17:42:37.040Z,10.43
2019-05-28T17:45:08.020Z,10.90
2019-05-28T17:47:43.513Z,10.80
2019-05-28T17:50:08.324Z,11.03
2019-05-28T17:52:37.342Z,11.07
2019-05-28T17:55:07.761Z,11.30
2019-05-28T17:57:37.181Z,11.63
2019-05-28T18:00:08.127Z,10.93
2019-05-28T18:02:37.081Z,10.67
2019-05-28T18:05:07.350Z,10.87
2019-05-28T18:07:42.041Z,10.40
2019-05-28T18:10:13.040Z,10.67
2019-05-28T18:12:41.982Z,8.93
2019-05-28T18:15:11.322Z,8.83
2019-05-28T18:17:40.252Z,8.60
2019-05-28T18:20:10.182Z,8.43
2019-05-28T18:22:44.923Z,9.17
2019-05-28T18:25:13.923Z,9.00
2019-05-28T18:27:42.892Z,8.93
2019-05-28T18:30:11.885Z,8.87
2019-05-28T18:32:40.921Z,8.63
2019-05-28T18:35:10.026Z,9.10
2019-05-28T18:37:38.980Z,9.50
2019-05-28T18:40:09.494Z,9.50
2019-05-28T18:42:38.428Z,9.77
2019-05-28T18:45:09.845Z,9.70
2019-05-28T18:47:42.467Z,10.10
2019-05-28T18:50:11.761Z,9.57
2019-05-28T18:52:42.742Z,9.93
2019-05-28T18:55:13.622Z,8.97
2019-05-28T18:57:42.564Z,8.90
2019-05-28T19:00:13.660Z,9.37
2019-05-28T19:02:46.025Z,8.90
2019-05-28T19:05:15.036Z,8.80
2019-05-28T19:07:44.020Z,8.03
2019-05-28T19:10:13.222Z,6.87
2019-05-28T19:12:42.180Z,6.60
2019-05-28T19:15:11.180Z,6.47
2019-05-28T19:17:40.293Z,6.33
2019-05-28T19:20:10.965Z,6.03
2019-05-28T19:22:40.019Z,6.40
2019-05-28T19:25:10.862Z,6.60
2019-05-28T19:27:39.917Z,7.27
2019-05-28T19:30:09.888Z,7.60
2019-05-28T19:32:38.963Z,7.37
2019-05-28T19:35:08.682Z,7.43
2019-05-28T19:37:37.818Z,7.23
2019-05-28T19:40:07.700Z,7.07
2019-05-28T19:42:36.720Z,7.60
2019-05-28T19:45:07.312Z,8.00
2019-05-28T19:47:36.352Z,8.30
2019-05-28T19:50:08.883Z,7.90
2019-05-28T19:52:37.820Z,8.27
2019-05-28T19:55:07.461Z,7.27
2019-05-28T19:57:36.404Z,6.90
2019-05-28T20:00:07.262Z,8.20
2019-05-28T20:02:36.240Z,7.43
2019-05-28T20:05:07.761Z,8.40
2019-05-28T20:07:36.693Z,9.17
2019-05-28T20:10:08.983Z,11.50
2019-05-28T20:12:37.920Z,10.93
2019-05-28T20:15:11.436Z,11.17
2019-05-28T20:17:40.534Z,10.40
2019-05-28T20:20:10.460Z,11.00
2019-05-28T20:22:39.399Z,11.03
2019-05-28T20:25:09.320Z,10.30
2019-05-28T20:27:38.208Z,9.33
2019-05-28T20:30:09.426Z,8.70
2019-05-28T20:32:38.547Z,8.00
2019-05-28T20:35:09.615Z,7.77
2019-05-28T20:37:38.759Z,7.50
2019-05-28T20:40:10.204Z,7.50
2019-05-28T20:42:39.483Z,7.73
2019-05-28T20:45:12.298Z,8.20
2019-05-28T20:47:41.340Z,7.57
2019-05-28T20:50:11.511Z,7.67
2019-05-28T20:52:40.892Z,7.47
2019-05-28T20:55:10.600Z,7.87
2019-05-28T20:57:39.540Z,6.33
2019-05-28T21:00:12.300Z,6.70
2019-05-28T21:02:41.260Z,6.27
2019-05-28T21:05:10.285Z,5.70
2019-05-28T21:07:39.361Z,4.93
2019-05-28T21:10:11.160Z,4.57
2019-05-28T21:12:44.797Z,4.90
2019-05-28T21:15:15.970Z,4.60
2019-05-28T21:17:44.971Z,4.30
2019-05-28T21:20:15.321Z,4.83
2019-05-28T21:22:44.266Z,4.37
2019-05-28T21:25:19.100Z,3.83
2019-05-28T21:27:48.040Z,4.30
2019-05-28T21:30:18.442Z,3.73
2019-05-28T21:32:47.469Z,4.10
2019-05-28T21:35:16.620Z,4.03
2019-05-28T21:37:45.560Z,3.70
2019-05-28T21:40:15.759Z,3.90
2019-05-28T21:42:58.548Z,3.80
2019-05-28T21:45:15.640Z,3.80
2019-05-28T21:47:44.600Z,3.80
2019-05-28T21:50:13.602Z,3.97
2019-05-28T21:52:42.549Z,3.50
2019-05-28T21:55:11.840Z,3.33
2019-05-28T21:57:40.799Z,3.57
2019-05-28T22:00:29.080Z,3.37
2019-05-28T22:02:58.521Z,3.60
2019-05-28T22:05:27.641Z,3.50
2019-05-28T22:07:57.310Z,3.53
2019-05-28T22:10:26.380Z,3.60
2019-05-28T22:12:55.625Z,3.73
2019-05-28T22:15:24.729Z,3.20
2019-05-28T22:17:53.660Z,3.53
2019-05-28T22:20:22.580Z,3.50
2019-05-28T22:22:51.520Z,3.27
2019-05-28T22:25:20.419Z,3.40
2019-05-28T22:27:49.361Z,3.60
2019-05-28T22:30:18.341Z,3.60
2019-05-28T22:32:47.287Z,3.40
2019-05-28T22:35:16.400Z,3.33
2019-05-28T22:37:45.303Z,3.07
2019-05-28T22:40:14.843Z,3.27
2019-05-28T22:42:43.760Z,3.10
2019-05-28T22:45:12.900Z,3.43
2019-05-28T22:47:41.800Z,3.07
2019-05-28T22:50:22.097Z,3.17
2019-05-28T22:52:41.622Z,3.10
2019-05-28T22:55:10.640Z,3.07
2019-05-28T22:57:39.540Z,3.60
2019-05-28T23:00:09.080Z,2.97
2019-05-28T23:02:37.980Z,3.10
2019-05-28T23:05:09.660Z,2.93
2019-05-28T23:07:38.561Z,2.80
2019-05-28T23:10:08.303Z,3.37
2019-05-28T23:12:37.242Z,2.80
2019-05-28T23:15:08.240Z,3.00
2019-05-28T23:17:37.142Z,3.07
2019-05-28T23:20:11.264Z,3.00
2019-05-28T23:22:40.463Z,3.00
2019-05-28T23:25:09.861Z,3.10
2019-05-28T23:27:38.800Z,3.00
2019-05-28T23:30:22.431Z,3.03
2019-05-28T23:32:38.819Z,3.00
2019-05-28T23:35:08.748Z,2.90
2019-05-28T23:37:37.866Z,2.90
2019-05-28T23:40:09.358Z,3.10
2019-05-28T23:42:38.560Z,2.60
2019-05-28T23:45:09.890Z,3.03
2019-05-28T23:47:39.037Z,2.87
2019-05-28T23:50:08.522Z,3.00
2019-05-28T23:52:38.800Z,3.20
2019-05-28T23:55:09.773Z,3.00
2019-05-28T23:57:38.940Z,3.20
